Time;durP1;ratioP1;P1;durP2;ratioP2;P2;SDS_P1;SDS_P2;PMS_P1;PMS_P2;Temp;Humidity;BMP_temperature;BMP_pressure;BME280_temperature;BME280_humidity;BME280_pressure;Samples;Min_cycle;Max_cycle;Signal;HPM_P1;HPM_P2
2022/03/06 00:00:23;;;;;;;15.00;9.05;;;0.90;32.60;;;;;;5042770;28;20292;-73
2022/03/06 00:02:51;;;;;;;16.38;9.75;;;0.90;32.60;;;;;;5047413;28;20200;-72
2022/03/06 00:05:18;;;;;;;18.80;10.65;;;0.90;32.60;;;;;;5050478;28;20271;-73
2022/03/06 00:07:45;;;;;;;18.70;9.27;;;0.90;33.30;;;;;;5037232;28;20549;-73
2022/03/06 00:10:12;;;;;;;18.40;10.30;;;0.80;33.70;;;;;;5036360;28;20707;-73
2022/03/06 00:12:39;;;;;;;17.10;9.93;;;0.80;34.10;;;;;;5034447;28;20298;-74
2022/03/06 00:15:07;;;;;;;15.65;9.82;;;0.60;34.30;;;;;;5035630;28;20273;-74
2022/03/06 00:17:34;;;;;;;17.98;10.05;;;0.60;34.80;;;;;;5035032;28;20237;-73
2022/03/06 00:20:02;;;;;;;15.43;8.95;;;0.60;35.00;;;;;;5036673;28;20234;-73
2022/03/06 00:22:30;;;;;;;20.58;10.38;;;0.50;35.00;;;;;;5037639;28;20298;-73
2022/03/06 00:24:58;;;;;;;20.25;9.90;;;0.50;35.00;;;;;;5040254;28;20282;-73
2022/03/06 00:27:25;;;;;;;19.63;9.48;;;0.40;35.40;;;;;;5039640;28;20211;-72
2022/03/06 00:29:52;;;;;;;16.67;9.23;;;0.40;35.40;;;;;;5039352;28;20282;-74
2022/03/06 00:32:19;;;;;;;16.92;10.00;;;0.20;35.60;;;;;;5037960;28;20323;-74
2022/03/06 00:34:48;;;;;;;16.63;9.50;;;0.20;35.80;;;;;;5039936;28;20235;-73
2022/03/06 00:37:16;;;;;;;20.33;10.70;;;0.10;36.00;;;;;;5038517;28;20703;-73
2022/03/06 00:39:44;;;;;;;23.88;10.93;;;0.10;36.40;;;;;;5038052;28;20273;-73
2022/03/06 00:42:11;;;;;;;17.83;9.88;;;0.00;36.30;;;;;;5038844;28;20289;-72
2022/03/06 00:44:39;;;;;;;22.88;10.10;;;-0.10;36.60;;;;;;5041085;28;20275;-73
2022/03/06 00:47:06;;;;;;;23.30;11.98;;;-0.10;37.30;;;;;;5042465;28;20230;-73
2022/03/06 00:49:34;;;;;;;18.50;10.25;;;-0.20;37.50;;;;;;5041644;28;20242;-74
2022/03/06 00:52:01;;;;;;;18.80;10.73;;;-0.30;37.60;;;;;;5041827;28;20215;-74
2022/03/06 00:54:29;;;;;;;18.20;9.13;;;-0.20;37.10;;;;;;5043340;28;20279;-73
2022/03/06 00:56:56;;;;;;;18.80;10.40;;;-0.30;37.10;;;;;;5039778;28;20294;-73
2022/03/06 00:59:23;;;;;;;21.33;9.70;;;-0.30;38.00;;;;;;5041473;28;20277;-72
2022/03/06 01:01:50;;;;;;;21.25;9.93;;;-0.30;38.10;;;;;;5043232;28;20286;-72
2022/03/06 01:04:17;;;;;;;19.17;9.82;;;-0.40;37.80;;;;;;5050103;28;20223;-72
2022/03/06 01:06:44;;;;;;;18.20;9.65;;;-0.40;37.80;;;;;;5048349;28;20636;-74
2022/03/06 01:09:12;;;;;;;16.67;10.13;;;-0.40;38.10;;;;;;5050327;28;20223;-73
2022/03/06 01:11:41;;;;;;;17.17;10.05;;;-0.40;38.40;;;;;;5043642;28;20530;-73
2022/03/06 01:14:08;;;;;;;19.15;10.27;;;-0.50;38.60;;;;;;5050593;28;20249;-74
2022/03/06 01:16:35;;;;;;;20.77;10.48;;;-0.50;39.10;;;;;;5056763;28;20253;-73
2022/03/06 01:19:02;;;;;;;16.75;9.50;;;-0.60;39.40;;;;;;5044006;28;20652;-73
2022/03/06 01:21:29;;;;;;;19.58;11.20;;;-0.70;40.00;;;;;;5046928;28;20203;-73
2022/03/06 01:23:58;;;;;;;18.23;9.05;;;-0.70;40.50;;;;;;5055543;28;20194;-72
2022/03/06 01:26:25;;;;;;;16.20;9.40;;;-0.60;40.40;;;;;;5055875;28;20242;-72
2022/03/06 01:28:53;;;;;;;18.90;10.57;;;-0.60;40.30;;;;;;5049940;28;20286;-73
2022/03/06 01:31:20;;;;;;;18.52;9.70;;;-0.60;41.00;;;;;;5035264;28;20207;-74
2022/03/06 01:33:47;;;;;;;17.98;9.73;;;-0.60;41.70;;;;;;5040310;28;20255;-74
2022/03/06 01:36:14;;;;;;;21.02;11.13;;;-0.60;41.00;;;;;;5056798;28;20244;-74
2022/03/06 01:38:41;;;;;;;19.55;10.35;;;-0.60;41.00;;;;;;5066688;28;20245;-74
2022/03/06 01:41:08;;;;;;;19.33;10.52;;;-0.70;40.90;;;;;;5067746;28;20214;-73
2022/03/06 01:43:35;;;;;;;18.05;9.90;;;-0.70;40.90;;;;;;5053750;28;20642;-73
2022/03/06 01:46:03;;;;;;;17.42;9.57;;;-0.70;40.90;;;;;;5035121;28;20242;-74
2022/03/06 01:48:30;;;;;;;22.17;10.55;;;-0.80;40.80;;;;;;5037945;28;20210;-75
2022/03/06 01:50:57;;;;;;;17.00;10.35;;;-0.80;40.80;;;;;;5042374;22;20567;-74
2022/03/06 01:53:24;;;;;;;17.33;10.00;;;-0.80;41.10;;;;;;5015596;28;20242;-73
2022/03/06 01:55:51;;;;;;;17.40;9.55;;;-0.90;40.70;;;;;;5014533;28;20632;-73
2022/03/06 01:58:18;;;;;;;19.17;9.85;;;-0.90;41.30;;;;;;5013593;28;20207;-72
2022/03/06 02:00:49;;;;;;;17.00;10.10;;;-0.90;41.30;;;;;;5013517;28;20410;-73
2022/03/06 02:03:20;;;;;;;19.67;10.30;;;-0.90;41.40;;;;;;5014612;28;20251;-73
2022/03/06 02:05:48;;;;;;;21.35;10.07;;;-0.90;40.90;;;;;;5013174;28;20208;-73
2022/03/06 02:08:15;;;;;;;19.48;9.70;;;-0.90;40.70;;;;;;5014490;28;20208;-73
2022/03/06 02:10:42;;;;;;;16.70;9.43;;;-0.90;40.70;;;;;;5015134;28;20243;-72
2022/03/06 02:13:08;;;;;;;18.35;10.25;;;-0.70;40.50;;;;;;5023350;28;20302;-73
2022/03/06 02:15:36;;;;;;;15.90;9.25;;;-0.70;40.30;;;;;;5019393;28;20222;-75
2022/03/06 02:18:03;;;;;;;17.63;10.45;;;-0.60;40.00;;;;;;5015044;28;20690;-74
2022/03/06 02:20:32;;;;;;;18.40;10.95;;;-0.60;39.80;;;;;;5014147;28;20224;-73
2022/03/06 02:23:00;;;;;;;17.15;9.45;;;-0.60;39.80;;;;;;5013276;28;20279;-73
2022/03/06 02:25:29;;;;;;;18.80;10.43;;;-0.60;39.50;;;;;;5014060;28;20314;-73
2022/03/06 02:27:58;;;;;;;19.23;9.60;;;-0.60;39.50;;;;;;5015339;28;20214;-73
2022/03/06 02:30:28;;;;;;;15.18;9.93;;;-0.60;39.10;;;;;;5014012;28;20236;-74
2022/03/06 02:32:57;;;;;;;17.15;9.60;;;-0.50;39.20;;;;;;5013480;28;20251;-74
2022/03/06 02:35:24;;;;;;;18.63;9.98;;;-0.50;39.10;;;;;;5013647;28;20238;-71
2022/03/06 02:37:51;;;;;;;15.15;9.75;;;-0.60;39.10;;;;;;5013227;28;20207;-74
2022/03/06 02:40:21;;;;;;;15.25;8.90;;;-0.60;39.20;;;;;;5013374;28;20274;-73
2022/03/06 02:42:50;;;;;;;19.13;10.70;;;-0.60;39.00;;;;;;5012960;28;20207;-73
2022/03/06 02:45:19;;;;;;;15.63;9.05;;;-0.60;38.90;;;;;;5013108;28;20668;-73
2022/03/06 02:47:48;;;;;;;14.75;8.93;;;-0.60;38.70;;;;;;5013143;28;20251;-74
2022/03/06 02:50:17;;;;;;;18.55;10.45;;;-0.60;38.90;;;;;;5012983;28;20715;-74
2022/03/06 02:52:45;;;;;;;18.15;9.73;;;-0.60;39.10;;;;;;5012659;28;20258;-74
2022/03/06 02:55:13;;;;;;;19.13;9.98;;;-0.70;39.40;;;;;;5013158;28;20230;-74
2022/03/06 02:57:42;;;;;;;17.92;10.05;;;-0.70;39.30;;;;;;5013183;28;20221;-73
2022/03/06 03:00:12;;;;;;;17.85;9.65;;;-0.70;39.50;;;;;;5012806;28;20670;-74
2022/03/06 03:02:39;;;;;;;16.05;9.25;;;-0.70;39.60;;;;;;5012209;28;20587;-74
2022/03/06 03:05:06;;;;;;;16.67;9.13;;;-0.70;39.60;;;;;;5012969;28;20603;-74
2022/03/06 03:07:33;;;;;;;19.05;10.18;;;-0.80;39.90;;;;;;5013255;28;20219;-74
2022/03/06 03:10:00;;;;;;;18.70;10.13;;;-0.80;39.90;;;;;;5013320;28;20227;-74
2022/03/06 03:12:27;;;;;;;18.67;9.90;;;-0.80;40.00;;;;;;5012576;28;20208;-73
2022/03/06 03:14:55;;;;;;;21.10;9.65;;;-0.80;40.20;;;;;;5012842;28;20568;-74
2022/03/06 03:17:22;;;;;;;20.55;10.52;;;-0.80;40.70;;;;;;5013176;28;20204;-73
2022/03/06 03:19:49;;;;;;;15.73;9.15;;;-0.80;40.10;;;;;;5012511;28;20311;-73
2022/03/06 03:22:16;;;;;;;19.77;9.63;;;-0.80;40.10;;;;;;5012003;28;20223;-73
2022/03/06 03:24:43;;;;;;;16.50;9.70;;;-0.80;40.30;;;;;;5012445;28;20200;-74
2022/03/06 03:27:09;;;;;;;15.57;9.35;;;-0.80;40.10;;;;;;5012424;28;20214;-73
2022/03/06 03:29:36;;;;;;;18.23;10.30;;;-0.80;40.50;;;;;;5011961;28;20717;-73
2022/03/06 03:32:05;;;;;;;16.67;9.27;;;-0.90;40.70;;;;;;5011277;28;20671;-72
2022/03/06 03:34:32;;;;;;;18.35;9.32;;;-1.00;40.60;;;;;;5011988;28;20231;-73
2022/03/06 03:36:59;;;;;;;14.02;8.52;;;-1.00;40.70;;;;;;5012524;28;20682;-73
2022/03/06 03:39:27;;;;;;;19.73;10.38;;;-1.00;40.60;;;;;;5012167;28;20610;-74
2022/03/06 03:41:53;;;;;;;19.13;10.23;;;-1.00;40.70;;;;;;5011629;28;20302;-72
2022/03/06 03:44:20;;;;;;;18.58;10.30;;;-1.10;41.10;;;;;;5014131;28;20276;-72
2022/03/06 03:46:47;;;;;;;17.33;9.82;;;-1.10;41.60;;;;;;5015066;28;20675;-73
2022/03/06 03:49:15;;;;;;;20.23;10.38;;;-1.10;41.90;;;;;;5015694;28;20235;-74
2022/03/06 03:51:43;;;;;;;20.73;10.30;;;-1.10;42.40;;;;;;5018907;28;20203;-71
2022/03/06 03:54:10;;;;;;;19.42;10.40;;;-1.10;42.40;;;;;;5021357;28;20244;-73
2022/03/06 03:56:37;;;;;;;19.67;10.95;;;-1.20;42.70;;;;;;5015777;28;20295;-74
2022/03/06 03:59:04;;;;;;;20.77;10.05;;;-1.20;43.00;;;;;;5012382;28;20664;-73
2022/03/06 04:01:30;;;;;;;14.40;9.18;;;-1.20;43.20;;;;;;5012082;28;20641;-73
2022/03/06 04:03:57;;;;;;;16.63;10.00;;;-1.20;43.30;;;;;;5012173;28;20208;-73
2022/03/06 04:06:25;;;;;;;17.20;9.55;;;-1.20;43.60;;;;;;5012896;28;20235;-73
2022/03/06 04:08:52;;;;;;;14.93;9.77;;;-1.20;43.50;;;;;;5016266;28;20683;-73
2022/03/06 04:11:19;;;;;;;20.65;12.38;;;-1.20;43.50;;;;;;5015706;28;20586;-73
2022/03/06 04:13:46;;;;;;;19.98;11.00;;;-1.20;43.60;;;;;;5015374;28;20672;-72
2022/03/06 04:16:13;;;;;;;19.42;10.35;;;-1.10;43.80;;;;;;5015379;28;20216;-72
2022/03/06 04:18:40;;;;;;;17.17;9.25;;;-1.10;43.50;;;;;;5016021;28;20235;-73
2022/03/06 04:21:06;;;;;;;21.25;10.52;;;-1.10;43.20;;;;;;5017173;28;20749;-73
2022/03/06 04:23:35;;;;;;;16.42;10.05;;;-1.00;43.00;;;;;;5019512;28;20211;-71
2022/03/06 04:26:02;;;;;;;18.85;10.32;;;-1.00;43.00;;;;;;5016977;28;20306;-72
2022/03/06 04:28:28;;;;;;;22.92;9.80;;;-1.00;43.00;;;;;;5015867;28;20571;-72
2022/03/06 04:30:55;;;;;;;18.23;9.52;;;-1.00;42.70;;;;;;5015014;28;20275;-72
2022/03/06 04:33:23;;;;;;;15.77;10.25;;;-1.10;43.40;;;;;;5015654;28;20718;-74
2022/03/06 04:35:49;;;;;;;22.75;10.20;;;-1.10;42.90;;;;;;5015387;28;20215;-73
2022/03/06 04:38:16;;;;;;;15.10;8.70;;;-1.10;42.60;;;;;;5015094;28;20212;-72
2022/03/06 04:40:46;;;;;;;16.15;9.20;;;-1.10;42.60;;;;;;5014920;28;20227;-75
2022/03/06 04:43:13;;;;;;;18.98;10.77;;;-1.10;42.80;;;;;;5015399;28;20216;-72
2022/03/06 04:45:40;;;;;;;19.27;9.90;;;-1.20;42.90;;;;;;5015231;28;20219;-75
2022/03/06 04:48:07;;;;;;;16.55;9.73;;;-1.20;43.00;;;;;;5015681;28;20299;-73
2022/03/06 04:50:33;;;;;;;20.77;10.13;;;-1.30;43.30;;;;;;5015653;28;20600;-72
2022/03/06 04:53:00;;;;;;;19.15;9.88;;;-1.40;43.90;;;;;;5016589;28;20212;-72
2022/03/06 04:55:27;;;;;;;18.70;9.50;;;-1.50;44.10;;;;;;5023524;28;20228;-72
2022/03/06 04:57:55;;;;;;;17.02;9.20;;;-1.50;44.70;;;;;;5020944;28;20219;-73
2022/03/06 05:00:22;;;;;;;19.10;9.90;;;-1.50;45.00;;;;;;5016096;28;20291;-74
2022/03/06 05:02:49;;;;;;;18.08;8.90;;;-1.50;45.00;;;;;;5015893;28;20287;-72
2022/03/06 05:05:16;;;;;;;17.70;9.60;;;-1.50;45.00;;;;;;5015001;28;20208;-73
2022/03/06 05:07:43;;;;;;;17.75;10.73;;;-1.40;45.10;;;;;;5015587;28;20240;-74
2022/03/06 05:10:11;;;;;;;20.33;11.38;;;-1.50;45.00;;;;;;5015352;28;20290;-73
2022/03/06 05:12:38;;;;;;;17.30;8.80;;;-1.50;45.70;;;;;;5015580;28;20211;-73
2022/03/06 05:15:10;;;;;;;19.85;10.98;;;-1.50;45.30;;;;;;5021411;28;20293;-76
2022/03/06 05:17:37;;;;;;;17.23;8.93;;;-1.50;45.30;;;;;;5020560;28;20196;-74
2022/03/06 05:20:05;;;;;;;17.45;9.48;;;-1.50;45.50;;;;;;5021717;28;20223;-74
2022/03/06 05:22:32;;;;;;;18.48;10.05;;;-1.60;45.90;;;;;;5020928;28;20218;-74
2022/03/06 05:24:59;;;;;;;17.33;9.07;;;-1.60;46.40;;;;;;5023874;28;20208;-74
2022/03/06 05:27:26;;;;;;;23.60;10.27;;;-1.70;46.40;;;;;;5017488;28;20212;-74
2022/03/06 05:29:53;;;;;;;18.90;10.27;;;-1.70;46.70;;;;;;5015921;28;20256;-74
2022/03/06 05:32:21;;;;;;;17.92;9.00;;;-1.60;46.80;;;;;;5014627;28;20620;-74
2022/03/06 05:34:48;;;;;;;18.65;9.65;;;-1.60;46.80;;;;;;5015047;28;20223;-75
2022/03/06 05:37:15;;;;;;;18.35;10.00;;;-1.50;46.70;;;;;;5014680;28;20683;-73
2022/03/06 05:39:42;;;;;;;16.20;10.15;;;-1.50;47.10;;;;;;5014783;28;20231;-75
2022/03/06 05:42:09;;;;;;;15.90;8.50;;;-1.60;46.90;;;;;;5014152;28;20208;-73
2022/03/06 05:44:36;;;;;;;17.38;9.68;;;-1.60;47.10;;;;;;5015213;28;20206;-74
2022/03/06 05:47:03;;;;;;;17.75;10.00;;;-1.60;47.30;;;;;;5014618;28;20200;-74
2022/03/06 05:49:32;;;;;;;23.50;10.75;;;-1.60;47.10;;;;;;5014300;28;20263;-74
2022/03/06 05:51:58;;;;;;;19.40;9.77;;;-1.60;47.30;;;;;;5012908;28;20192;-73
2022/03/06 05:54:25;;;;;;;22.02;10.82;;;-1.60;47.60;;;;;;5014018;28;20231;-73
2022/03/06 05:56:52;;;;;;;15.27;9.25;;;-1.50;47.30;;;;;;5014491;28;20239;-73
2022/03/06 05:59:19;;;;;;;17.75;10.05;;;-1.40;47.00;;;;;;4994268;28;20267;-74
2022/03/06 06:01:46;;;;;;;18.45;9.60;;;-1.30;46.60;;;;;;4993668;28;20739;-74
2022/03/06 06:04:13;;;;;;;18.98;9.70;;;-1.30;46.50;;;;;;5012931;28;20235;-73
2022/03/06 06:06:41;;;;;;;19.55;9.77;;;-1.20;46.10;;;;;;5014264;28;20299;-74
2022/03/06 06:09:08;;;;;;;16.75;9.23;;;-1.10;45.60;;;;;;5013766;28;20208;-74
2022/03/06 06:11:35;;;;;;;18.90;10.43;;;-1.00;45.40;;;;;;5013829;28;20210;-74
2022/03/06 06:14:03;;;;;;;17.42;10.52;;;-1.00;45.20;;;;;;5014162;28;20579;-75
2022/03/06 06:16:30;;;;;;;16.17;9.80;;;-1.00;45.10;;;;;;5013972;28;20212;-74
2022/03/06 06:18:57;;;;;;;20.70;10.75;;;-1.00;45.10;;;;;;5013429;28;20200;-74
2022/03/06 06:21:24;;;;;;;23.02;9.80;;;-1.00;45.10;;;;;;5012607;28;20214;-74
2022/03/06 06:23:52;;;;;;;19.60;9.93;;;-0.90;45.00;;;;;;5013147;28;20229;-73
2022/03/06 06:26:19;;;;;;;19.20;10.85;;;-0.80;45.10;;;;;;5013158;28;20208;-73
2022/03/06 06:28:48;;;;;;;17.00;9.50;;;-0.70;44.60;;;;;;5013243;28;20208;-74
2022/03/06 06:31:14;;;;;;;17.20;9.50;;;-0.60;44.00;;;;;;5012639;28;20278;-73
2022/03/06 06:33:41;;;;;;;18.98;10.90;;;-0.50;43.10;;;;;;5013981;28;20268;-74
2022/03/06 06:36:08;;;;;;;16.85;9.82;;;-0.50;42.80;;;;;;5013659;28;20230;-75
2022/03/06 06:38:35;;;;;;;21.58;10.40;;;-0.50;42.80;;;;;;5014006;28;20222;-74
2022/03/06 06:41:03;;;;;;;18.30;9.80;;;-0.50;43.00;;;;;;5012872;28;20220;-74
2022/03/06 06:43:30;;;;;;;15.43;9.13;;;-0.50;42.80;;;;;;5013289;28;20683;-75
2022/03/06 06:45:57;;;;;;;19.70;10.88;;;-0.50;43.00;;;;;;5013431;28;20208;-74
2022/03/06 06:48:24;;;;;;;17.30;9.90;;;-0.50;42.60;;;;;;5013132;28;20212;-74
2022/03/06 06:50:51;;;;;;;20.20;9.90;;;-0.50;42.80;;;;;;5012152;28;20250;-74
2022/03/06 06:53:18;;;;;;;15.95;9.23;;;-0.50;43.00;;;;;;5013222;28;20216;-74
2022/03/06 06:55:44;;;;;;;18.42;10.60;;;-0.40;43.20;;;;;;5013352;28;20703;-72
2022/03/06 06:58:13;;;;;;;17.33;9.65;;;-0.40;43.40;;;;;;5017127;28;20227;-72
2022/03/06 07:00:39;;;;;;;15.65;9.63;;;-0.40;43.90;;;;;;5016670;28;20239;-74
2022/03/06 07:03:06;;;;;;;18.48;9.85;;;-0.30;43.20;;;;;;5013579;28;20200;-75
2022/03/06 07:05:33;;;;;;;14.43;8.55;;;-0.20;43.20;;;;;;5013783;28;20231;-73
2022/03/06 07:08:00;;;;;;;17.58;9.60;;;-0.20;43.20;;;;;;5013264;28;20200;-73
2022/03/06 07:10:27;;;;;;;16.38;9.18;;;-0.20;43.10;;;;;;5015620;28;20326;-73
2022/03/06 07:12:55;;;;;;;18.88;9.48;;;-0.10;43.20;;;;;;5017496;28;20210;-73
2022/03/06 07:15:28;;;;;;;16.90;9.95;;;0.00;43.20;;;;;;5019420;28;20315;-72
2022/03/06 07:17:57;;;;;;;16.20;10.20;;;0.00;42.80;;;;;;5018856;28;20208;-73
2022/03/06 07:20:24;;;;;;;16.15;9.73;;;0.10;42.60;;;;;;5021563;28;20232;-73
2022/03/06 07:22:51;;;;;;;16.25;10.13;;;0.30;42.70;;;;;;5015830;28;20267;-73
2022/03/06 07:25:18;;;;;;;19.55;9.57;;;0.30;42.50;;;;;;5013985;28;20429;-74
2022/03/06 07:27:45;;;;;;;19.20;10.35;;;0.40;41.90;;;;;;5013152;28;20250;-75
2022/03/06 07:30:12;;;;;;;20.58;9.88;;;0.40;41.90;;;;;;5014199;28;20232;-73
2022/03/06 07:32:44;;;;;;;18.70;10.18;;;0.40;41.90;;;;;;5015577;28;20648;-75
2022/03/06 07:35:11;;;;;;;16.92;9.57;;;0.40;42.60;;;;;;5016618;28;20234;-74
2022/03/06 07:37:38;;;;;;;17.08;9.73;;;0.40;41.80;;;;;;5014883;28;20224;-73
2022/03/06 07:40:06;;;;;;;15.77;9.15;;;0.60;42.10;;;;;;5012803;28;20235;-73
2022/03/06 07:42:33;;;;;;;17.70;10.55;;;0.80;42.20;;;;;;5013737;28;20217;-72
2022/03/06 07:45:00;;;;;;;25.95;10.40;;;0.80;42.20;;;;;;5017905;28;20195;-72
2022/03/06 07:47:27;;;;;;;18.63;9.30;;;0.90;41.90;;;;;;5017948;28;20366;-74
2022/03/06 07:49:55;;;;;;;16.77;10.18;;;1.00;41.90;;;;;;5049789;22;20295;-79
2022/03/06 07:52:22;;;;;;;18.35;10.57;;;1.20;41.50;;;;;;5047552;28;20214;-76
2022/03/06 07:54:49;;;;;;;18.27;9.57;;;1.30;41.40;;;;;;5051296;28;20215;-76
2022/03/06 07:57:16;;;;;;;21.02;11.38;;;1.40;41.40;;;;;;5066724;28;20210;-77
2022/03/06 07:59:43;;;;;;;17.10;9.85;;;1.60;40.90;;;;;;5071336;28;20227;-76
2022/03/06 08:02:10;;;;;;;16.15;10.48;;;1.40;41.30;;;;;;5066367;28;20635;-73
2022/03/06 08:04:37;;;;;;;16.55;9.45;;;1.50;41.30;;;;;;5056016;28;20413;-78
2022/03/06 08:07:06;;;;;;;15.80;10.98;;;1.70;41.60;;;;;;5070774;28;20202;-75
2022/03/06 08:09:33;;;;;;;20.33;10.60;;;1.80;41.50;;;;;;5052513;28;20228;-75
2022/03/06 08:12:00;;;;;;;20.30;11.05;;;1.70;41.80;;;;;;5067889;28;20275;-75
2022/03/06 08:14:27;;;;;;;15.43;10.25;;;1.80;42.20;;;;;;5047602;28;20207;-75
2022/03/06 08:16:54;;;;;;;16.60;9.30;;;2.00;42.30;;;;;;5064571;28;20698;-74
2022/03/06 08:19:21;;;;;;;15.38;9.50;;;2.10;42.10;;;;;;5070022;28;20211;-73
2022/03/06 08:21:49;;;;;;;16.15;9.57;;;2.20;42.10;;;;;;5047434;28;20222;-73
2022/03/06 08:24:17;;;;;;;15.85;9.43;;;2.30;41.70;;;;;;5043769;28;20214;-73
2022/03/06 08:26:44;;;;;;;15.63;9.60;;;2.50;41.50;;;;;;5044486;28;20208;-74
2022/03/06 08:29:11;;;;;;;16.75;9.40;;;2.60;40.90;;;;;;5044027;28;20211;-74
2022/03/06 08:31:38;;;;;;;16.85;9.95;;;2.70;40.60;;;;;;5047485;28;20235;-75
2022/03/06 08:34:06;;;;;;;15.88;10.93;;;2.80;40.20;;;;;;5049318;28;20215;-74
2022/03/06 08:36:34;;;;;;;16.92;9.68;;;2.80;40.30;;;;;;5062998;28;20254;-75
2022/03/06 08:39:01;;;;;;;16.27;9.98;;;2.80;39.20;;;;;;5068047;28;20231;-73
2022/03/06 08:41:29;;;;;;;15.35;10.18;;;2.90;39.40;;;;;;5065732;28;20227;-75
2022/03/06 08:43:56;;;;;;;15.88;9.32;;;3.00;39.30;;;;;;5064121;28;20687;-74
2022/03/06 08:46:23;;;;;;;15.90;10.32;;;3.00;39.30;;;;;;5066509;28;20230;-76
2022/03/06 08:48:50;;;;;;;14.70;10.30;;;3.00;39.30;;;;;;5067738;28;20227;-77
2022/03/06 08:51:17;;;;;;;14.38;9.52;;;3.20;39.50;;;;;;5065804;28;20724;-76
2022/03/06 08:53:44;;;;;;;17.02;10.38;;;3.20;39.10;;;;;;5053265;28;20207;-76
2022/03/06 08:56:11;;;;;;;15.80;10.32;;;3.20;39.10;;;;;;5053973;28;20235;-76
2022/03/06 08:58:40;;;;;;;14.23;9.32;;;3.40;38.40;;;;;;5066580;28;20245;-76
2022/03/06 09:01:07;;;;;;;16.65;10.80;;;3.40;38.40;;;;;;5072806;28;20230;-76
2022/03/06 09:03:34;;;;;;;17.02;10.20;;;3.40;38.70;;;;;;5060027;28;20218;-76
2022/03/06 09:06:01;;;;;;;18.23;10.23;;;3.50;38.40;;;;;;5047939;28;20651;-76
2022/03/06 09:08:28;;;;;;;18.27;11.10;;;3.70;38.00;;;;;;5045895;28;20298;-75
2022/03/06 09:10:55;;;;;;;14.20;10.52;;;3.70;37.90;;;;;;5048235;28;20262;-76
2022/03/06 09:13:22;;;;;;;16.25;10.43;;;3.70;36.60;;;;;;5058279;28;20229;-75
2022/03/06 09:15:50;;;;;;;14.68;9.57;;;3.70;37.10;;;;;;5070116;28;20234;-76
2022/03/06 09:18:17;;;;;;;17.30;10.35;;;3.80;36.40;;;;;;5066874;28;20228;-76
2022/03/06 09:20:44;;;;;;;17.40;11.43;;;3.90;35.60;;;;;;5070092;28;20753;-76
2022/03/06 09:23:11;;;;;;;17.13;10.02;;;3.90;35.90;;;;;;5069369;28;20578;-74
2022/03/06 09:25:38;;;;;;;18.42;11.05;;;4.10;35.40;;;;;;5071526;28;20236;-75
2022/03/06 09:28:06;;;;;;;16.85;11.10;;;4.20;35.50;;;;;;5068456;28;20231;-72
2022/03/06 09:30:34;;;;;;;18.17;11.07;;;4.30;35.50;;;;;;5049284;28;20243;-74
2022/03/06 09:33:02;;;;;;;19.83;12.13;;;4.30;35.10;;;;;;5049467;28;20226;-75
2022/03/06 09:35:29;;;;;;;21.20;12.00;;;4.30;35.50;;;;;;5024957;28;20240;-75
2022/03/06 09:37:56;;;;;;;16.00;10.60;;;4.20;35.50;;;;;;5022675;28;20598;-74
2022/03/06 09:40:23;;;;;;;14.73;10.25;;;4.50;35.30;;;;;;5021992;28;20234;-73
2022/03/06 09:42:51;;;;;;;17.98;11.30;;;4.40;34.80;;;;;;5023178;28;20237;-75
2022/03/06 09:45:18;;;;;;;22.90;10.02;;;4.30;35.10;;;;;;5023294;28;20212;-74
2022/03/06 09:47:45;;;;;;;18.25;11.90;;;4.40;34.30;;;;;;5023190;28;20280;-74
2022/03/06 09:50:15;;;;;;;16.05;10.60;;;4.70;33.90;;;;;;5022910;28;20242;-75
2022/03/06 09:52:43;;;;;;;15.98;10.15;;;4.80;32.60;;;;;;5022411;28;20216;-75
2022/03/06 09:55:13;;;;;;;19.33;11.15;;;4.90;31.50;;;;;;5022673;28;20221;-76
2022/03/06 09:57:40;;;;;;;17.23;10.43;;;5.00;31.80;;;;;;5033295;28;20216;-76
2022/03/06 10:00:09;;;;;;;16.42;10.27;;;4.90;31.80;;;;;;5043912;28;20232;-78
2022/03/06 10:02:52;;;;;;;16.45;10.63;;;4.90;30.90;;;;;;5045425;28;20299;-76
2022/03/06 10:05:35;;;;;;;17.77;10.73;;;5.00;31.10;;;;;;5042413;28;20215;-76
2022/03/06 10:08:20;;;;;;;17.48;11.50;;;5.30;29.80;;;;;;5044157;28;20751;-75
2022/03/06 10:10:48;;;;;;;18.33;11.80;;;5.30;30.10;;;;;;5045702;28;20314;-75
2022/03/06 10:13:28;;;;;;;17.40;11.48;;;5.30;29.80;;;;;;5048706;28;20212;-74
2022/03/06 10:16:00;;;;;;;15.02;9.57;;;5.20;29.90;;;;;;5056107;28;20215;-75
2022/03/06 10:18:30;;;;;;;14.70;9.25;;;4.90;28.70;;;;;;5048324;28;20243;-75
2022/03/06 10:21:10;;;;;;;14.65;9.93;;;5.10;28.60;;;;;;5054381;28;20233;-74
2022/03/06 10:23:38;;;;;;;17.02;10.18;;;5.20;27.40;;;;;;5046204;28;20207;-75
2022/03/06 10:26:07;;;;;;;15.68;10.27;;;5.30;27.80;;;;;;5043821;28;20661;-74
2022/03/06 10:28:43;;;;;;;15.70;10.48;;;5.50;27.40;;;;;;5040616;28;20213;-75
2022/03/06 10:31:11;;;;;;;13.35;8.95;;;5.00;27.10;;;;;;5045570;28;20232;-74
2022/03/06 10:33:38;;;;;;;14.90;9.95;;;4.90;27.00;;;;;;5061875;28;20219;-75
2022/03/06 10:36:09;;;;;;;14.15;8.68;;;5.00;27.10;;;;;;5050399;28;20589;-74
2022/03/06 10:38:37;;;;;;;11.98;8.63;;;5.00;26.50;;;;;;5046981;28;20181;-75
2022/03/06 10:41:12;;;;;;;14.35;9.68;;;5.00;26.10;;;;;;5043708;28;20228;-76
2022/03/06 10:43:40;;;;;;;15.50;9.63;;;5.00;26.00;;;;;;5041063;28;20299;-76
2022/03/06 10:46:09;;;;;;;12.85;8.00;;;5.10;26.00;;;;;;5054025;28;20204;-76
2022/03/06 10:48:37;;;;;;;13.18;8.88;;;5.10;25.70;;;;;;5068590;28;20238;-77
2022/03/06 10:51:08;;;;;;;13.83;9.30;;;5.20;25.50;;;;;;5029484;28;1104660;-77
2022/03/06 10:53:36;;;;;;;13.23;8.85;;;5.30;25.40;;;;;;5071605;28;20219;-77
2022/03/06 10:56:08;;;;;;;16.00;9.82;;;5.50;25.20;;;;;;5074834;28;20223;-77
2022/03/06 10:58:38;;;;;;;13.93;9.00;;;5.30;25.10;;;;;;5070109;28;20207;-76
2022/03/06 11:01:16;;;;;;;11.70;8.50;;;5.40;24.20;;;;;;5065886;28;20252;-77
2022/03/06 11:03:43;;;;;;;14.32;7.93;;;5.50;22.50;;;;;;5072533;28;20235;-76
2022/03/06 11:06:16;;;;;;;12.45;7.90;;;5.40;22.30;;;;;;5073149;28;20196;-77
2022/03/06 11:08:45;;;;;;;9.18;6.97;;;5.50;22.70;;;;;;5072639;28;20268;-78
2022/03/06 11:11:13;;;;;;;13.55;8.40;;;5.60;22.40;;;;;;5064706;28;20213;-77
2022/03/06 11:13:40;;;;;;;11.82;7.75;;;5.70;22.30;;;;;;5055884;28;20245;-76
2022/03/06 11:16:07;;;;;;;7.80;5.65;;;5.80;22.30;;;;;;5054222;28;20275;-76
2022/03/06 11:18:34;;;;;;;11.90;7.40;;;6.00;21.90;;;;;;5069010;28;20205;-78
2022/03/06 11:21:03;;;;;;;12.25;8.35;;;6.00;20.90;;;;;;5068910;28;20243;-77
2022/03/06 11:23:39;;;;;;;8.90;6.45;;;5.70;21.60;;;;;;5061750;28;20208;-77
2022/03/06 11:26:49;;;;;;;10.77;7.35;;;5.90;21.50;;;;;;5064970;28;20797;-78
2022/03/06 11:29:49;;;;;;;12.18;8.32;;;5.80;22.00;;;;;;5024906;28;20241;-77
2022/03/06 11:32:24;;;;;;;10.82;6.43;;;5.70;22.70;;;;;;5043852;28;20212;-75
2022/03/06 11:34:54;;;;;;;12.85;7.90;;;5.60;22.00;;;;;;5046157;28;20216;-76
2022/03/06 11:37:24;;;;;;;10.90;7.40;;;5.50;21.80;;;;;;5034134;28;20218;-76
2022/03/06 11:39:57;;;;;;;12.02;7.60;;;5.60;21.60;;;;;;5033632;28;20297;-77
2022/03/06 11:42:57;;;;;;;10.60;7.72;;;5.50;21.80;;;;;;5034377;28;20194;-76
2022/03/06 11:45:47;;;;;;;12.73;7.75;;;5.50;22.20;;;;;;5033393;28;20214;-77
2022/03/06 11:48:48;;;;;;;12.85;8.50;;;5.50;22.20;;;;;;5029393;28;20216;-75
2022/03/06 11:51:20;;;;;;;11.05;8.05;;;5.40;22.50;;;;;;5026240;28;20247;-76
2022/03/06 11:53:49;;;;;;;9.88;7.47;;;5.50;22.30;;;;;;5031149;28;20228;-76
2022/03/06 11:56:46;;;;;;;16.73;8.20;;;5.70;21.50;;;;;;5034763;28;20300;-76
2022/03/06 11:59:36;;;;;;;11.38;8.75;;;5.90;20.90;;;;;;5026291;28;20552;-77
2022/03/06 12:02:18;;;;;;;12.20;7.65;;;6.10;20.50;;;;;;5025722;28;20210;-77
2022/03/06 12:04:47;;;;;;;9.43;7.75;;;6.40;20.10;;;;;;5027527;28;20195;-78
2022/03/06 12:07:16;;;;;;;9.48;7.15;;;6.50;20.10;;;;;;5026062;28;20304;-77
2022/03/06 12:09:45;;;;;;;12.15;8.75;;;6.40;20.10;;;;;;5025707;28;20240;-79
2022/03/06 12:12:15;;;;;;;12.48;7.65;;;6.40;20.10;;;;;;5029521;28;20210;-78
2022/03/06 12:14:44;;;;;;;10.57;7.30;;;6.70;20.30;;;;;;5028519;28;20216;-78
2022/03/06 12:17:29;;;;;;;10.20;7.60;;;7.20;18.80;;;;;;5043827;28;20230;-79
2022/03/06 12:20:23;;;;;;;11.60;7.43;;;7.40;18.40;;;;;;5046269;28;20229;-79
2022/03/06 12:22:52;;;;;;;13.40;8.07;;;7.10;19.40;;;;;;5044908;28;20214;-76
2022/03/06 12:25:24;;;;;;;10.10;7.25;;;7.10;19.00;;;;;;5062526;28;20656;-80
2022/03/06 12:28:22;;;;;;;11.00;7.93;;;6.60;19.90;;;;;;5067221;28;20202;-77
2022/03/06 12:30:49;;;;;;;10.38;8.15;;;6.60;20.20;;;;;;5075770;28;20228;-77
2022/03/06 12:33:31;;;;;;;10.30;7.43;;;6.50;20.10;;;;;;5076311;28;20247;-78
2022/03/06 12:36:21;;;;;;;10.02;8.07;;;7.00;20.50;;;;;;5074868;28;20225;-81
2022/03/06 12:38:53;;;;;;;10.98;7.60;;;7.50;18.90;;;;;;5079802;28;20235;-77
2022/03/06 12:41:20;;;;;;;11.25;8.35;;;7.30;18.60;;;;;;5078165;28;20234;-79
2022/03/06 12:43:57;;;;;;;14.00;8.07;;;7.00;19.40;;;;;;5076949;28;20217;-76
2022/03/06 12:46:24;;;;;;;11.35;8.00;;;7.10;19.50;;;;;;5072477;28;20204;-77